createdAt,value
2023-03-01T00:01:34.734Z,5.88
2023-03-01T00:04:02.403Z,8.65
2023-03-01T00:06:30.239Z,9.82
2023-03-01T00:08:58.045Z,9.13
2023-03-01T00:11:28.088Z,5.57
2023-03-01T00:13:58.771Z,7.55
2023-03-01T00:16:35.176Z,6.47
2023-03-01T00:19:03.592Z,7.30
2023-03-01T00:21:31.379Z,8.13
2023-03-01T00:23:59.305Z,10.18
2023-03-01T00:26:27.517Z,9.55
2023-03-01T00:28:57.822Z,9.77
2023-03-01T00:31:31.019Z,10.93
2023-03-01T00:34:03.923Z,12.05
2023-03-01T00:39:05.731Z,9.30
2023-03-01T00:41:34.979Z,14.23
2023-03-01T00:44:03.669Z,13.98
2023-03-01T00:46:31.906Z,11.75
2023-03-01T00:49:03.078Z,8.85
2023-03-01T00:51:31.415Z,13.88
2023-03-01T00:54:02.069Z,11.13
2023-03-01T00:56:31.404Z,10.43
2023-03-01T00:58:59.458Z,11.60
2023-03-01T01:01:32.465Z,9.95
2023-03-01T01:04:04.125Z,13.45
2023-03-01T01:06:38.152Z,11.60
2023-03-01T01:09:08.137Z,10.20
2023-03-01T01:11:39.160Z,6.53
2023-03-01T01:14:06.816Z,8.23
2023-03-01T01:16:34.592Z,8.48
2023-03-01T01:19:03.140Z,13.65
2023-03-01T01:21:31.052Z,11.48
2023-03-01T01:23:59.202Z,11.20
2023-03-01T01:26:30.305Z,11.32
2023-03-01T01:28:59.106Z,8.48
2023-03-01T01:31:27.715Z,10.27
2023-03-01T01:33:55.892Z,11.30
2023-03-01T01:36:23.884Z,13.35
2023-03-01T01:38:51.998Z,13.52
2023-03-01T01:41:20.851Z,14.70
2023-03-01T01:44:10.170Z,13.35
2023-03-01T01:46:49.152Z,10.20
2023-03-01T01:49:46.777Z,11.25
2023-03-01T01:52:23.342Z,10.93
2023-03-01T01:55:11.218Z,9.77
2023-03-01T01:57:44.320Z,9.93
2023-03-01T02:00:16.229Z,8.07
2023-03-01T02:02:47.650Z,12.65
2023-03-01T02:05:15.406Z,10.00
2023-03-01T02:07:44.291Z,9.13
2023-03-01T02:10:12.152Z,8.23
2023-03-01T02:12:41.099Z,9.07
2023-03-01T02:15:09.147Z,9.57
2023-03-01T02:17:37.045Z,6.82
2023-03-01T02:20:28.076Z,9.02
2023-03-01T02:22:56.144Z,10.35
2023-03-01T02:26:04.460Z,5.43
2023-03-01T02:28:38.372Z,9.90
2023-03-01T02:31:26.986Z,10.13
2023-03-01T02:33:55.898Z,8.55
2023-03-01T02:36:27.896Z,7.57
2023-03-01T02:38:59.952Z,6.63
2023-03-01T02:41:36.832Z,7.32
2023-03-01T02:44:05.715Z,10.00
2023-03-01T02:46:33.842Z,5.82
2023-03-01T02:49:01.898Z,5.05
2023-03-01T02:51:57.549Z,5.38
2023-03-01T02:54:41.158Z,5.47
2023-03-01T02:57:09.880Z,6.10
2023-03-01T02:59:40.550Z,7.53
2023-03-01T03:02:21.889Z,5.18
2023-03-01T03:04:49.972Z,9.98
2023-03-01T03:07:17.966Z,7.55
2023-03-01T03:09:45.817Z,6.72
2023-03-01T03:12:14.292Z,6.30
2023-03-01T03:14:42.376Z,5.32
2023-03-01T03:17:10.337Z,6.63
2023-03-01T03:19:38.278Z,9.90
2023-03-01T03:22:06.081Z,6.88
2023-03-01T03:24:39.184Z,6.97
2023-03-01T03:27:08.253Z,9.55
2023-03-01T03:29:35.966Z,7.53
2023-03-01T03:32:04.216Z,10.20
2023-03-01T03:34:31.923Z,16.02
2023-03-01T03:37:00.527Z,51.70
2023-03-01T03:39:28.923Z,26.55
2023-03-01T03:41:56.479Z,15.00
2023-03-01T03:44:24.066Z,19.90
2023-03-01T03:46:51.956Z,24.92
2023-03-01T03:49:19.654Z,23.38
2023-03-01T03:51:47.675Z,17.17
2023-03-01T03:54:15.915Z,16.08
2023-03-01T03:56:45.133Z,12.00
2023-03-01T03:59:12.881Z,6.93
2023-03-01T04:01:40.450Z,10.07
2023-03-01T04:04:08.848Z,7.00
2023-03-01T04:06:36.577Z,6.50
2023-03-01T04:09:04.233Z,8.75
2023-03-01T04:11:32.337Z,7.20
2023-03-01T04:14:01.274Z,9.38
2023-03-01T04:16:29.446Z,10.48
2023-03-01T04:18:57.661Z,38.80
2023-03-01T04:21:25.955Z,10.50
2023-03-01T04:23:53.859Z,8.27
2023-03-01T04:26:21.887Z,14.05
2023-03-01T04:28:51.573Z,14.25
2023-03-01T04:31:22.319Z,11.23
2023-03-01T04:33:55.745Z,7.10
2023-03-01T04:36:29.233Z,10.88
2023-03-01T04:38:57.558Z,7.47
2023-03-01T04:41:26.764Z,8.77
2023-03-01T04:43:54.480Z,4.28
2023-03-01T04:46:23.209Z,10.60
2023-03-01T04:48:50.972Z,10.05
2023-03-01T04:51:19.540Z,5.32
2023-03-01T04:53:47.822Z,7.75
2023-03-01T04:56:16.024Z,5.70
2023-03-01T04:58:43.795Z,8.98
2023-03-01T05:01:16.548Z,5.78
2023-03-01T05:06:16.875Z,11.88
2023-03-01T05:08:45.198Z,12.77
2023-03-01T05:11:13.268Z,10.15
2023-03-01T05:13:41.122Z,6.13
2023-03-01T05:16:12.597Z,7.57
2023-03-01T05:18:41.458Z,7.70
2023-03-01T05:21:11.942Z,8.55
2023-03-01T05:23:40.032Z,9.77
2023-03-01T05:26:16.172Z,8.88
2023-03-01T05:28:57.640Z,12.63
2023-03-01T05:31:25.397Z,12.02
2023-03-01T05:33:53.884Z,23.02
2023-03-01T05:36:21.559Z,27.27
2023-03-01T05:38:49.110Z,13.65
2023-03-01T05:41:18.119Z,28.70
2023-03-01T05:43:46.197Z,13.18
2023-03-01T05:46:16.372Z,11.70
2023-03-01T05:48:44.948Z,10.10
2023-03-01T05:51:13.228Z,8.63
2023-03-01T05:53:40.792Z,10.63
2023-03-01T05:56:08.681Z,11.48
2023-03-01T05:58:36.380Z,7.13
2023-03-01T06:01:04.137Z,10.27
2023-03-01T06:03:31.667Z,10.93
2023-03-01T06:05:59.774Z,7.30
2023-03-01T06:08:28.537Z,9.20
2023-03-01T06:10:56.265Z,9.80
2023-03-01T06:13:25.099Z,12.90
2023-03-01T06:15:53.110Z,8.02
2023-03-01T06:18:20.865Z,9.23
2023-03-01T06:20:54.895Z,9.70
2023-03-01T06:23:23.415Z,10.77
2023-03-01T06:25:51.317Z,8.02
2023-03-01T06:28:18.933Z,8.90
2023-03-01T06:30:47.127Z,7.60
2023-03-01T06:33:15.027Z,8.02
2023-03-01T06:35:42.684Z,11.73
2023-03-01T06:38:10.579Z,10.75
2023-03-01T06:40:38.319Z,6.78
2023-03-01T06:43:05.986Z,10.65
2023-03-01T06:45:33.556Z,11.88
2023-03-01T06:48:06.134Z,7.68
2023-03-01T06:50:34.910Z,7.10
2023-03-01T06:53:03.534Z,10.27
2023-03-01T06:55:31.964Z,8.55
2023-03-01T06:58:01.294Z,6.65
2023-03-01T07:00:30.179Z,13.18
2023-03-01T07:03:00.441Z,9.65
2023-03-01T07:05:32.740Z,8.75
2023-03-01T07:08:00.383Z,15.45
2023-03-01T07:10:28.240Z,7.40
2023-03-01T07:12:59.655Z,9.70
2023-03-01T07:15:29.709Z,6.15
2023-03-01T07:17:57.592Z,11.18
2023-03-01T07:20:26.655Z,6.20
2023-03-01T07:22:55.959Z,8.95
2023-03-01T07:25:23.722Z,11.60
2023-03-01T07:27:53.399Z,6.95
2023-03-01T07:30:22.297Z,8.98
2023-03-01T07:32:50.157Z,9.80
2023-03-01T07:35:18.037Z,7.65
2023-03-01T07:37:45.980Z,7.07
2023-03-01T07:40:14.314Z,9.23
2023-03-01T07:42:42.134Z,11.70
2023-03-01T07:45:10.257Z,15.30
2023-03-01T07:47:37.870Z,14.80
2023-03-01T07:50:06.500Z,6.88
2023-03-01T07:52:34.079Z,9.30
2023-03-01T07:55:02.015Z,9.88
2023-03-01T07:57:29.651Z,7.88
2023-03-01T07:59:57.270Z,7.47
2023-03-01T08:02:24.832Z,8.23
2023-03-01T08:04:52.738Z,9.60
2023-03-01T08:07:20.348Z,10.13
2023-03-01T08:09:48.003Z,10.52
2023-03-01T08:12:17.400Z,14.57
2023-03-01T08:14:45.122Z,8.35
2023-03-01T08:17:15.460Z,10.38
2023-03-01T08:19:44.484Z,11.27
2023-03-01T08:22:12.273Z,10.48
2023-03-01T08:24:39.891Z,10.18
2023-03-01T08:27:07.675Z,14.05
2023-03-01T08:29:35.431Z,9.05
2023-03-01T08:32:03.170Z,7.45
2023-03-01T08:34:32.370Z,6.43
2023-03-01T08:36:59.952Z,8.00
2023-03-01T08:39:27.575Z,8.93
2023-03-01T08:41:55.142Z,7.35
2023-03-01T08:44:22.703Z,9.02
2023-03-01T08:46:51.662Z,7.18
2023-03-01T08:49:20.948Z,5.68
2023-03-01T08:51:49.335Z,8.50
2023-03-01T08:54:20.340Z,5.45
2023-03-01T08:56:48.975Z,15.30
2023-03-01T08:59:18.639Z,8.48
2023-03-01T09:01:46.309Z,5.32
2023-03-01T09:04:15.663Z,6.07
2023-03-01T09:06:43.312Z,3.85
2023-03-01T09:09:17.025Z,3.60
2023-03-01T09:11:47.395Z,5.15
2023-03-01T09:14:15.613Z,4.80
2023-03-01T09:16:43.701Z,6.80
2023-03-01T09:19:12.165Z,8.82
2023-03-01T09:21:41.247Z,4.72
2023-03-01T09:24:14.967Z,5.05
2023-03-01T09:26:43.431Z,10.52
2023-03-01T09:29:11.317Z,7.00
2023-03-01T09:31:39.077Z,5.30
2023-03-01T09:34:07.157Z,5.45
2023-03-01T09:36:35.301Z,5.38
2023-03-01T09:39:03.690Z,4.80
2023-03-01T09:41:51.509Z,5.95
2023-03-01T09:44:40.922Z,5.55
2023-03-01T09:47:21.043Z,6.75
2023-03-01T09:50:14.387Z,14.52
2023-03-01T09:53:01.493Z,9.55
2023-03-01T09:55:45.429Z,18.00
2023-03-01T09:58:38.184Z,46.53
2023-03-01T10:01:17.900Z,17.83
2023-03-01T10:04:13.985Z,7.25
2023-03-01T10:06:52.533Z,10.25
2023-03-01T10:09:20.675Z,9.35
2023-03-01T10:11:55.103Z,9.80
2023-03-01T10:14:40.687Z,7.20
2023-03-01T10:17:35.237Z,5.90
2023-03-01T10:20:22.045Z,7.18
2023-03-01T10:22:56.177Z,8.70
2023-03-01T10:25:56.910Z,12.23
2023-03-01T10:29:03.468Z,5.90
2023-03-01T10:31:47.073Z,8.48
2023-03-01T10:34:21.448Z,5.38
2023-03-01T10:36:52.174Z,8.68
2023-03-01T10:39:26.404Z,9.73
2023-03-01T10:42:06.818Z,7.35
2023-03-01T10:44:40.752Z,6.35
2023-03-01T10:47:16.207Z,8.70
2023-03-01T10:49:54.055Z,7.68
2023-03-01T10:52:32.328Z,12.30
2023-03-01T10:55:04.614Z,6.07
2023-03-01T10:57:40.550Z,6.20
2023-03-01T11:00:17.895Z,5.65
2023-03-01T11:03:12.539Z,7.43
2023-03-01T11:05:52.074Z,6.75
2023-03-01T11:08:46.647Z,9.10
2023-03-01T11:11:20.983Z,6.65
2023-03-01T11:13:56.861Z,4.50
2023-03-01T11:16:46.418Z,7.57
2023-03-01T11:19:14.018Z,4.93
2023-03-01T11:21:48.386Z,6.95
2023-03-01T11:24:18.284Z,5.43
2023-03-01T11:26:52.770Z,7.10
2023-03-01T11:29:48.940Z,3.75
2023-03-01T11:32:17.676Z,4.78
2023-03-01T11:34:55.771Z,6.43
2023-03-01T11:38:17.795Z,7.82
2023-03-01T11:41:09.034Z,3.83
2023-03-01T11:44:02.555Z,5.57
2023-03-01T11:46:33.518Z,4.78
2023-03-01T11:49:07.434Z,3.30
2023-03-01T11:51:37.998Z,4.47
2023-03-01T11:54:17.874Z,4.85
2023-03-01T11:56:53.507Z,4.60
2023-03-01T11:59:58.722Z,8.27
2023-03-01T12:02:45.014Z,5.70
2023-03-01T12:05:50.076Z,5.80
2023-03-01T12:08:34.944Z,6.00
2023-03-01T12:11:05.644Z,5.90
2023-03-01T12:14:03.345Z,8.85
2023-03-01T12:16:52.986Z,10.90
2023-03-01T12:20:03.019Z,4.07
2023-03-01T12:23:11.331Z,4.80
2023-03-01T12:25:51.746Z,6.65
2023-03-01T12:28:53.226Z,8.25
2023-03-01T12:31:48.396Z,5.13
2023-03-01T12:34:34.791Z,6.82
2023-03-01T12:37:23.933Z,6.63
2023-03-01T12:40:17.594Z,5.57
2023-03-01T12:42:53.052Z,9.55
2023-03-01T12:45:56.648Z,6.00
2023-03-01T12:48:44.075Z,5.00
2023-03-01T12:51:18.463Z,6.32
2023-03-01T12:53:51.176Z,6.90
2023-03-01T12:59:18.962Z,2.72
2023-03-01T13:02:01.820Z,3.42
2023-03-01T13:07:29.177Z,6.93
2023-03-01T13:10:12.178Z,4.38
2023-03-01T13:13:00.123Z,4.38
2023-03-01T13:15:31.081Z,2.22
2023-03-01T13:18:04.500Z,3.47
2023-03-01T13:20:49.305Z,9.90
2023-03-01T13:23:22.900Z,1.80
2023-03-01T13:26:16.829Z,3.70
2023-03-01T13:28:52.846Z,1.92
2023-03-01T13:31:20.587Z,1.98
2023-03-01T13:34:01.698Z,6.53
2023-03-01T13:36:30.174Z,1.95
2023-03-01T13:39:01.293Z,3.30
2023-03-01T13:41:44.284Z,5.70
2023-03-01T13:46:56.189Z,2.33
2023-03-01T13:49:44.356Z,1.83
2023-03-01T13:52:42.081Z,4.22
2023-03-01T13:55:15.906Z,6.10
2023-03-01T13:57:48.923Z,3.55
2023-03-01T14:00:34.019Z,3.03
2023-03-01T14:03:17.023Z,2.47
2023-03-01T14:08:42.111Z,1.80
2023-03-01T14:11:21.719Z,1.13
2023-03-01T14:14:19.651Z,1.35
2023-03-01T14:17:05.861Z,1.15
2023-03-01T14:19:34.994Z,4.72
2023-03-01T14:22:08.388Z,3.85
2023-03-01T14:24:39.384Z,6.00
2023-03-01T14:27:15.208Z,4.60
2023-03-01T14:29:42.957Z,6.78
2023-03-01T14:32:28.954Z,2.65
2023-03-01T14:34:58.628Z,4.47
2023-03-01T14:37:27.801Z,2.67
2023-03-01T14:39:56.527Z,4.03
2023-03-01T14:42:28.324Z,3.83
2023-03-01T14:44:57.616Z,1.98
2023-03-01T14:47:30.950Z,5.68
2023-03-01T14:50:09.717Z,6.20
2023-03-01T14:52:40.208Z,6.10
2023-03-01T14:55:21.427Z,3.88
2023-03-01T14:57:51.153Z,2.38
2023-03-01T15:00:29.247Z,3.40
2023-03-01T15:03:04.423Z,4.60
2023-03-01T15:05:33.930Z,3.65
2023-03-01T15:08:05.059Z,4.07
2023-03-01T15:10:36.316Z,6.95
2023-03-01T15:13:24.795Z,2.17
2023-03-01T15:15:54.846Z,3.45
2023-03-01T15:18:30.351Z,11.27
2023-03-01T15:21:11.737Z,8.98
2023-03-01T15:23:41.924Z,7.15
2023-03-01T15:26:27.387Z,8.07
2023-03-01T15:29:01.593Z,7.35
2023-03-01T15:31:33.401Z,3.88
2023-03-01T15:34:23.427Z,6.90
2023-03-01T15:36:55.634Z,5.93
2023-03-01T15:39:44.428Z,4.07
2023-03-01T15:42:24.985Z,5.25
2023-03-01T15:45:29.375Z,3.92
2023-03-01T15:48:06.820Z,3.38
2023-03-01T15:50:38.309Z,7.68
2023-03-01T15:53:12.285Z,15.63
2023-03-01T15:55:39.917Z,11.50
2023-03-01T15:58:14.273Z,5.05
2023-03-01T16:00:59.074Z,9.48
2023-03-01T16:03:28.073Z,21.77
2023-03-01T16:05:55.713Z,88.55
2023-03-01T16:08:23.492Z,141.63
2023-03-01T16:10:52.624Z,66.53
2023-03-01T16:13:20.542Z,95.63
2023-03-01T16:15:48.832Z,66.82
2023-03-01T16:18:16.522Z,32.72
2023-03-01T16:20:44.640Z,20.25
2023-03-01T16:23:12.870Z,27.13
2023-03-01T16:25:40.883Z,33.38
2023-03-01T16:28:11.901Z,27.92
2023-03-01T16:30:41.073Z,15.93
2023-03-01T16:33:26.736Z,26.85
2023-03-01T16:35:59.191Z,15.52
2023-03-01T16:38:28.946Z,22.40
2023-03-01T16:40:57.213Z,27.25
2023-03-01T16:43:25.979Z,20.75
2023-03-01T16:45:54.225Z,16.27
2023-03-01T16:48:22.560Z,36.72
2023-03-01T16:51:01.772Z,9.20
2023-03-01T16:53:30.366Z,9.48
2023-03-01T16:55:59.716Z,9.75
2023-03-01T16:58:28.864Z,6.22
2023-03-01T17:00:57.750Z,14.88
2023-03-01T17:03:28.030Z,21.85
2023-03-01T17:05:56.006Z,22.20
2023-03-01T17:08:23.971Z,21.00
2023-03-01T17:10:51.799Z,27.58
2023-03-01T17:13:19.613Z,29.20
2023-03-01T17:15:49.318Z,15.82
2023-03-01T17:18:17.712Z,27.83
2023-03-01T17:20:46.869Z,23.58
2023-03-01T17:23:14.827Z,12.45
2023-03-01T17:25:45.609Z,8.80
2023-03-01T17:28:15.305Z,15.00
2023-03-01T17:30:46.073Z,16.63
2023-03-01T17:33:16.970Z,50.55
2023-03-01T17:35:47.340Z,34.85
2023-03-01T17:38:18.518Z,35.73
2023-03-01T17:40:47.054Z,31.58
2023-03-01T17:43:16.943Z,56.92
2023-03-01T17:45:49.199Z,51.45
2023-03-01T17:48:17.620Z,39.78
2023-03-01T17:50:45.970Z,28.23
2023-03-01T17:53:14.593Z,37.80
2023-03-01T17:55:45.602Z,27.73
2023-03-01T17:58:15.897Z,29.83
2023-03-01T18:00:45.336Z,17.45
2023-03-01T18:03:14.462Z,23.58
2023-03-01T18:05:42.524Z,25.98
2023-03-01T18:08:10.639Z,32.33
2023-03-01T18:10:42.552Z,34.13
2023-03-01T18:13:15.388Z,103.88
2023-03-01T18:15:53.608Z,46.88
2023-03-01T18:18:22.313Z,48.20
2023-03-01T18:20:57.810Z,60.05
2023-03-01T18:23:26.360Z,177.77
2023-03-01T18:26:06.097Z,73.47
2023-03-01T18:28:35.539Z,150.25
2023-03-01T18:31:09.188Z,40.25
2023-03-01T18:33:39.345Z,27.58
2023-03-01T18:36:19.307Z,15.70
2023-03-01T18:38:48.836Z,14.90
2023-03-01T18:41:20.961Z,15.68
2023-03-01T18:43:49.926Z,13.75
2023-03-01T18:46:21.714Z,9.30
2023-03-01T18:48:54.764Z,7.93
2023-03-01T18:51:27.130Z,6.10
2023-03-01T18:53:56.276Z,5.82
2023-03-01T18:56:25.593Z,11.20
2023-03-01T18:58:54.541Z,8.57
2023-03-01T19:01:26.259Z,5.47
2023-03-01T19:03:57.164Z,8.45
2023-03-01T19:06:29.465Z,13.82
2023-03-01T19:09:03.016Z,29.00
2023-03-01T19:11:33.883Z,37.95
2023-03-01T19:14:03.207Z,35.97
2023-03-01T19:16:36.004Z,31.35
2023-03-01T19:19:06.385Z,32.75
2023-03-01T19:21:35.384Z,17.98
2023-03-01T19:24:06.930Z,16.63
2023-03-01T19:26:36.786Z,15.85
2023-03-01T19:29:06.963Z,28.27
2023-03-01T19:31:36.498Z,14.70
2023-03-01T19:34:11.419Z,23.17
2023-03-01T19:36:45.278Z,17.35
2023-03-01T19:39:14.961Z,9.45
2023-03-01T19:41:47.006Z,7.20
2023-03-01T19:44:17.333Z,5.38
2023-03-01T19:46:46.522Z,2.55
2023-03-01T19:49:15.512Z,4.57
2023-03-01T19:51:43.984Z,9.93
2023-03-01T19:54:15.497Z,9.98
2023-03-01T19:56:44.555Z,14.20
2023-03-01T19:59:16.754Z,17.10
2023-03-01T20:01:47.198Z,17.85
2023-03-01T20:04:16.654Z,14.02
2023-03-01T20:06:47.878Z,13.82
2023-03-01T20:09:21.956Z,13.88
2023-03-01T20:11:52.789Z,9.60
2023-03-01T20:14:24.053Z,4.22
2023-03-01T20:16:53.766Z,4.20
2023-03-01T20:19:22.135Z,4.95
2023-03-01T20:21:51.438Z,3.03
2023-03-01T20:24:22.097Z,3.85
2023-03-01T20:26:50.925Z,7.50
2023-03-01T20:29:20.386Z,9.27
2023-03-01T20:31:49.572Z,5.55
2023-03-01T20:34:19.461Z,5.30
2023-03-01T20:36:48.335Z,6.40
2023-03-01T20:39:17.118Z,6.30
2023-03-01T20:41:45.830Z,5.72
2023-03-01T20:44:14.531Z,8.48
2023-03-01T20:46:43.497Z,6.05
2023-03-01T20:49:11.686Z,9.95
2023-03-01T20:51:40.517Z,4.25
2023-03-01T20:54:11.072Z,5.88
2023-03-01T20:56:42.906Z,5.80
2023-03-01T20:59:15.841Z,6.43
2023-03-01T21:04:12.710Z,7.35
2023-03-01T21:06:43.934Z,6.07
2023-03-01T21:09:11.999Z,8.07
2023-03-01T21:11:39.820Z,4.85
2023-03-01T21:14:08.226Z,6.28
2023-03-01T21:16:36.535Z,5.78
2023-03-01T21:19:08.300Z,8.40
2023-03-01T21:21:37.000Z,4.80
2023-03-01T21:24:05.619Z,9.30
2023-03-01T21:26:34.558Z,6.97
2023-03-01T21:29:02.880Z,5.63
2023-03-01T21:31:34.999Z,6.15
2023-03-01T21:34:07.551Z,5.57
2023-03-01T21:36:36.558Z,2.22
2023-03-01T21:39:06.886Z,2.55
2023-03-01T21:41:37.704Z,5.88
2023-03-01T21:44:06.830Z,5.95
2023-03-01T21:46:38.498Z,10.88
2023-03-01T21:49:07.702Z,36.38
2023-03-01T21:51:36.605Z,12.40
2023-03-01T21:54:04.343Z,7.05
2023-03-01T21:56:35.112Z,8.82
2023-03-01T21:59:03.805Z,10.88
2023-03-01T22:01:32.413Z,7.75
2023-03-01T22:04:01.827Z,8.82
2023-03-01T22:06:38.250Z,5.32
2023-03-01T22:09:09.262Z,8.98
2023-03-01T22:11:40.125Z,6.97
2023-03-01T22:14:08.534Z,6.68
2023-03-01T22:16:37.950Z,8.20
2023-03-01T22:19:07.668Z,8.52
2023-03-01T22:21:39.708Z,8.52
2023-03-01T22:24:08.794Z,10.38
2023-03-01T22:26:39.621Z,16.60
2023-03-01T22:29:10.658Z,16.95
2023-03-01T22:31:39.188Z,19.83
2023-03-01T22:34:07.276Z,21.75
2023-03-01T22:36:35.563Z,27.50
2023-03-01T22:39:04.404Z,24.05
2023-03-01T22:41:44.318Z,19.50
2023-03-01T22:44:17.881Z,14.57
2023-03-01T22:46:45.765Z,13.52
2023-03-01T22:49:16.423Z,6.78
2023-03-01T22:51:44.965Z,7.78
2023-03-01T22:54:12.596Z,11.68
2023-03-01T22:56:43.501Z,17.33
2023-03-01T22:59:14.394Z,18.95
2023-03-01T23:01:46.417Z,27.73
2023-03-01T23:04:16.421Z,22.45
2023-03-01T23:06:56.022Z,21.58
2023-03-01T23:09:27.177Z,26.30
2023-03-01T23:11:55.548Z,14.23
2023-03-01T23:14:24.028Z,12.82
2023-03-01T23:16:52.396Z,11.27
2023-03-01T23:19:21.368Z,11.40
2023-03-01T23:21:50.603Z,8.02
2023-03-01T23:24:20.083Z,6.18
2023-03-01T23:26:53.458Z,12.63
2023-03-01T23:29:21.832Z,10.05
2023-03-01T23:31:49.536Z,11.88
2023-03-01T23:34:17.355Z,6.55
2023-03-01T23:36:45.206Z,11.55
2023-03-01T23:39:14.038Z,9.75
2023-03-01T23:41:41.940Z,9.52
2023-03-01T23:44:15.596Z,7.03
2023-03-01T23:46:43.578Z,8.90
2023-03-01T23:49:13.568Z,8.18
2023-03-01T23:51:42.751Z,6.68
2023-03-01T23:54:12.565Z,12.70
2023-03-01T23:56:43.204Z,9.50
2023-03-01T23:59:16.892Z,6.82
